Menan, Idaho
Current Conditions -  °F | °C
As of 10:53 PM on Saturday 22 Nov 2014 (Local Time) from KRXE Reporting Station
Overcast Overcast  
Wind Chill: 23°   Ceiling: 1000
Heat Index: 32°   Visibility: 10mi
Dew Point: 28°   Wind: 13mph
Humidity: 85%   Direction: 210°SSW
Pressure: 29.8"   Gusts: NA
Location:  43.72°N, 111.99°W
Report Text: KRXE 230553Z AUTO 21011KT 10SM OVC010 00/M02 A2980 RMK AO2 SLP103 I6000 T00001022 10011 21006 53015
Loading
Personal Weather Stations






























Interactive Weather Map New forecast layout! Learn more

10-Day Weather Forecast

Advertisements
Track Severe Weather on mobile